sensor_id;sensor_type;location;lat;lon;timestamp;temperature;humidity
12726;DHT22;6427;49.754;6.106;2023-03-14T00:01:43;10.80;99.90
12726;DHT22;6427;49.754;6.106;2023-03-14T00:04:09;10.80;99.90
12726;DHT22;6427;49.754;6.106;2023-03-14T00:06:37;10.80;99.90
12726;DHT22;6427;49.754;6.106;2023-03-14T00:09:05;10.80;99.90
12726;DHT22;6427;49.754;6.106;2023-03-14T00:11:33;10.80;99.90
12726;DHT22;6427;49.754;6.106;2023-03-14T00:14:00;10.80;99.90
12726;DHT22;6427;49.754;6.106;2023-03-14T00:16:28;10.80;99.90
12726;DHT22;6427;49.754;6.106;2023-03-14T00:18:55;11.00;99.90
12726;DHT22;6427;49.754;6.106;2023-03-14T00:21:23;11.00;99.90
12726;DHT22;6427;49.754;6.106;2023-03-14T00:23:51;11.00;99.90
12726;DHT22;6427;49.754;6.106;2023-03-14T00:26:19;11.00;99.90
12726;DHT22;6427;49.754;6.106;2023-03-14T00:28:46;11.00;99.90
12726;DHT22;6427;49.754;6.106;2023-03-14T00:31:14;11.00;99.90
12726;DHT22;6427;49.754;6.106;2023-03-14T00:33:41;11.00;99.90
12726;DHT22;6427;49.754;6.106;2023-03-14T00:36:09;10.90;99.90
12726;DHT22;6427;49.754;6.106;2023-03-14T00:38:36;10.90;99.90
12726;DHT22;6427;49.754;6.106;2023-03-14T00:41:04;10.90;99.90
12726;DHT22;6427;49.754;6.106;2023-03-14T00:43:31;10.80;99.90
12726;DHT22;6427;49.754;6.106;2023-03-14T00:45:59;10.70;99.90
12726;DHT22;6427;49.754;6.106;2023-03-14T00:48:27;10.70;99.90
12726;DHT22;6427;49.754;6.106;2023-03-14T00:50:54;10.70;99.90
12726;DHT22;6427;49.754;6.106;2023-03-14T00:53:23;10.70;99.90
12726;DHT22;6427;49.754;6.106;2023-03-14T00:55:51;10.60;99.90
12726;DHT22;6427;49.754;6.106;2023-03-14T00:58:19;10.60;99.90
12726;DHT22;6427;49.754;6.106;2023-03-14T01:00:47;10.80;99.90
12726;DHT22;6427;49.754;6.106;2023-03-14T01:03:14;10.80;99.90
12726;DHT22;6427;49.754;6.106;2023-03-14T01:05:42;10.80;99.90
12726;DHT22;6427;49.754;6.106;2023-03-14T01:08:10;11.00;99.90
12726;DHT22;6427;49.754;6.106;2023-03-14T01:10:40;11.00;99.90
12726;DHT22;6427;49.754;6.106;2023-03-14T01:13:08;10.90;99.90
12726;DHT22;6427;49.754;6.106;2023-03-14T01:15:36;10.90;99.90
12726;DHT22;6427;49.754;6.106;2023-03-14T01:18:03;10.80;99.90
12726;DHT22;6427;49.754;6.106;2023-03-14T01:20:30;10.80;99.90
12726;DHT22;6427;49.754;6.106;2023-03-14T01:22:58;10.80;99.90
12726;DHT22;6427;49.754;6.106;2023-03-14T01:25:26;10.80;99.90
12726;DHT22;6427;49.754;6.106;2023-03-14T01:27:53;10.70;99.90
12726;DHT22;6427;49.754;6.106;2023-03-14T01:30:21;10.80;99.90
12726;DHT22;6427;49.754;6.106;2023-03-14T01:32:48;10.70;99.90
12726;DHT22;6427;49.754;6.106;2023-03-14T01:35:16;10.80;99.90
12726;DHT22;6427;49.754;6.106;2023-03-14T01:37:43;10.70;99.90
12726;DHT22;6427;49.754;6.106;2023-03-14T01:40:11;10.80;99.90
12726;DHT22;6427;49.754;6.106;2023-03-14T01:42:43;10.80;99.90
12726;DHT22;6427;49.754;6.106;2023-03-14T01:45:53;10.80;99.90
12726;DHT22;6427;49.754;6.106;2023-03-14T01:47:34;10.80;99.90
12726;DHT22;6427;49.754;6.106;2023-03-14T01:50:03;10.70;99.90
12726;DHT22;6427;49.754;6.106;2023-03-14T01:52:33;10.70;99.90
12726;DHT22;6427;49.754;6.106;2023-03-14T01:55:07;10.60;99.90
12726;DHT22;6427;49.754;6.106;2023-03-14T01:57:37;10.60;99.90
12726;DHT22;6427;49.754;6.106;2023-03-14T02:00:06;10.60;99.90
12726;DHT22;6427;49.754;6.106;2023-03-14T02:02:32;10.80;99.90
12726;DHT22;6427;49.754;6.106;2023-03-14T02:04:59;11.00;99.90
12726;DHT22;6427;49.754;6.106;2023-03-14T02:07:58;10.90;99.90
12726;DHT22;6427;49.754;6.106;2023-03-14T02:10:04;10.70;99.90
12726;DHT22;6427;49.754;6.106;2023-03-14T02:12:31;10.70;99.90
12726;DHT22;6427;49.754;6.106;2023-03-14T02:14:59;10.60;99.90
12726;DHT22;6427;49.754;6.106;2023-03-14T02:17:26;10.70;99.90
12726;DHT22;6427;49.754;6.106;2023-03-14T02:20:15;10.70;99.90
12726;DHT22;6427;49.754;6.106;2023-03-14T02:22:24;10.60;99.90
12726;DHT22;6427;49.754;6.106;2023-03-14T02:27:47;10.40;99.90
12726;DHT22;6427;49.754;6.106;2023-03-14T02:30:15;10.30;99.90
12726;DHT22;6427;49.754;6.106;2023-03-14T02:32:43;10.30;99.90
12726;DHT22;6427;49.754;6.106;2023-03-14T02:35:11;10.20;99.90
12726;DHT22;6427;49.754;6.106;2023-03-14T02:37:45;10.40;99.90
12726;DHT22;6427;49.754;6.106;2023-03-14T02:40:11;10.30;99.90
12726;DHT22;6427;49.754;6.106;2023-03-14T02:42:39;10.20;99.90
12726;DHT22;6427;49.754;6.106;2023-03-14T02:47:39;10.10;99.90
12726;DHT22;6427;49.754;6.106;2023-03-14T02:50:09;10.10;99.90
12726;DHT22;6427;49.754;6.106;2023-03-14T02:52:33;10.00;99.90
12726;DHT22;6427;49.754;6.106;2023-03-14T02:55:01;10.00;99.90
12726;DHT22;6427;49.754;6.106;2023-03-14T02:57:28;9.90;99.90
12726;DHT22;6427;49.754;6.106;2023-03-14T02:59:59;9.90;99.90
12726;DHT22;6427;49.754;6.106;2023-03-14T03:02:29;9.90;99.90
12726;DHT22;6427;49.754;6.106;2023-03-14T03:04:57;9.90;99.90
12726;DHT22;6427;49.754;6.106;2023-03-14T03:07:24;9.90;99.90
12726;DHT22;6427;49.754;6.106;2023-03-14T03:09:52;9.90;99.90
12726;DHT22;6427;49.754;6.106;2023-03-14T03:12:20;9.80;99.90
12726;DHT22;6427;49.754;6.106;2023-03-14T03:14:48;9.80;99.90
12726;DHT22;6427;49.754;6.106;2023-03-14T03:17:15;9.80;99.90
12726;DHT22;6427;49.754;6.106;2023-03-14T03:19:43;9.80;99.90
12726;DHT22;6427;49.754;6.106;2023-03-14T03:22:10;9.80;99.90
12726;DHT22;6427;49.754;6.106;2023-03-14T03:24:38;9.90;99.90
12726;DHT22;6427;49.754;6.106;2023-03-14T03:27:05;9.90;99.90
12726;DHT22;6427;49.754;6.106;2023-03-14T03:29:33;9.90;99.90
12726;DHT22;6427;49.754;6.106;2023-03-14T03:32:01;9.80;99.90
12726;DHT22;6427;49.754;6.106;2023-03-14T03:34:29;9.80;99.90
12726;DHT22;6427;49.754;6.106;2023-03-14T03:36:57;9.80;99.90
12726;DHT22;6427;49.754;6.106;2023-03-14T03:39:25;9.80;99.90
12726;DHT22;6427;49.754;6.106;2023-03-14T03:41:52;9.70;99.90
12726;DHT22;6427;49.754;6.106;2023-03-14T03:44:21;9.80;99.90
12726;DHT22;6427;49.754;6.106;2023-03-14T03:46:48;9.70;99.90
12726;DHT22;6427;49.754;6.106;2023-03-14T03:49:16;9.70;99.90
12726;DHT22;6427;49.754;6.106;2023-03-14T03:51:44;9.70;99.90
12726;DHT22;6427;49.754;6.106;2023-03-14T03:54:12;9.70;99.90
12726;DHT22;6427;49.754;6.106;2023-03-14T03:56:40;9.70;99.90
12726;DHT22;6427;49.754;6.106;2023-03-14T03:59:08;9.70;99.90
12726;DHT22;6427;49.754;6.106;2023-03-14T04:01:36;9.70;99.90
12726;DHT22;6427;49.754;6.106;2023-03-14T04:04:03;9.60;99.90
12726;DHT22;6427;49.754;6.106;2023-03-14T04:06:31;9.60;99.90
12726;DHT22;6427;49.754;6.106;2023-03-14T04:08:59;9.60;99.90
12726;DHT22;6427;49.754;6.106;2023-03-14T04:11:27;9.60;99.90
12726;DHT22;6427;49.754;6.106;2023-03-14T04:13:55;9.60;99.90
12726;DHT22;6427;49.754;6.106;2023-03-14T04:16:23;9.60;99.90
12726;DHT22;6427;49.754;6.106;2023-03-14T04:18:51;9.60;99.90
12726;DHT22;6427;49.754;6.106;2023-03-14T04:21:18;9.50;99.90
12726;DHT22;6427;49.754;6.106;2023-03-14T04:23:46;9.50;99.90
12726;DHT22;6427;49.754;6.106;2023-03-14T04:26:14;9.50;99.90
12726;DHT22;6427;49.754;6.106;2023-03-14T04:28:41;9.50;99.90
12726;DHT22;6427;49.754;6.106;2023-03-14T04:31:13;9.50;99.90
12726;DHT22;6427;49.754;6.106;2023-03-14T04:33:37;9.50;99.90
12726;DHT22;6427;49.754;6.106;2023-03-14T04:36:05;9.50;99.90
12726;DHT22;6427;49.754;6.106;2023-03-14T04:38:33;9.50;99.90
12726;DHT22;6427;49.754;6.106;2023-03-14T04:41:00;9.50;99.90
12726;DHT22;6427;49.754;6.106;2023-03-14T04:43:28;9.50;99.90
12726;DHT22;6427;49.754;6.106;2023-03-14T04:45:56;9.50;99.90
12726;DHT22;6427;49.754;6.106;2023-03-14T04:48:24;9.40;99.90
12726;DHT22;6427;49.754;6.106;2023-03-14T04:50:51;9.50;99.90
12726;DHT22;6427;49.754;6.106;2023-03-14T04:53:19;9.40;99.90
12726;DHT22;6427;49.754;6.106;2023-03-14T04:55:50;9.40;99.90
12726;DHT22;6427;49.754;6.106;2023-03-14T04:58:17;9.50;99.90
12726;DHT22;6427;49.754;6.106;2023-03-14T05:00:45;9.50;99.90
12726;DHT22;6427;49.754;6.106;2023-03-14T05:03:14;9.50;99.90
12726;DHT22;6427;49.754;6.106;2023-03-14T05:05:39;9.70;99.90
12726;DHT22;6427;49.754;6.106;2023-03-14T05:08:07;9.70;99.90
12726;DHT22;6427;49.754;6.106;2023-03-14T05:10:35;9.70;99.90
12726;DHT22;6427;49.754;6.106;2023-03-14T05:13:02;9.70;99.90
12726;DHT22;6427;49.754;6.106;2023-03-14T05:15:30;9.60;99.90
12726;DHT22;6427;49.754;6.106;2023-03-14T05:17:57;9.60;99.90
12726;DHT22;6427;49.754;6.106;2023-03-14T05:20:25;9.60;99.90
12726;DHT22;6427;49.754;6.106;2023-03-14T05:22:52;9.70;99.90
12726;DHT22;6427;49.754;6.106;2023-03-14T05:25:20;9.80;99.90
12726;DHT22;6427;49.754;6.106;2023-03-14T05:27:48;9.70;99.90
12726;DHT22;6427;49.754;6.106;2023-03-14T05:30:15;9.70;99.90
12726;DHT22;6427;49.754;6.106;2023-03-14T05:32:43;9.70;99.90
12726;DHT22;6427;49.754;6.106;2023-03-14T05:35:11;9.60;99.90
12726;DHT22;6427;49.754;6.106;2023-03-14T05:37:39;9.60;99.90
12726;DHT22;6427;49.754;6.106;2023-03-14T05:40:07;9.60;99.90
12726;DHT22;6427;49.754;6.106;2023-03-14T05:42:35;9.60;99.90
12726;DHT22;6427;49.754;6.106;2023-03-14T05:45:03;9.60;99.90
12726;DHT22;6427;49.754;6.106;2023-03-14T05:47:31;9.60;99.90
12726;DHT22;6427;49.754;6.106;2023-03-14T05:49:58;9.60;99.90
12726;DHT22;6427;49.754;6.106;2023-03-14T05:52:26;9.60;99.90
12726;DHT22;6427;49.754;6.106;2023-03-14T05:54:58;9.70;99.90
12726;DHT22;6427;49.754;6.106;2023-03-14T05:57:26;9.80;99.90
12726;DHT22;6427;49.754;6.106;2023-03-14T05:59:53;9.90;99.90
12726;DHT22;6427;49.754;6.106;2023-03-14T06:02:22;10.10;99.90
12726;DHT22;6427;49.754;6.106;2023-03-14T06:04:50;10.00;99.90
12726;DHT22;6427;49.754;6.106;2023-03-14T06:07:18;9.90;99.90
12726;DHT22;6427;49.754;6.106;2023-03-14T06:09:45;9.90;99.90
12726;DHT22;6427;49.754;6.106;2023-03-14T06:12:14;9.80;99.90
12726;DHT22;6427;49.754;6.106;2023-03-14T06:14:42;9.80;99.90
12726;DHT22;6427;49.754;6.106;2023-03-14T06:17:09;9.70;99.90
12726;DHT22;6427;49.754;6.106;2023-03-14T06:19:38;9.80;99.90
12726;DHT22;6427;49.754;6.106;2023-03-14T06:22:06;9.70;99.90
12726;DHT22;6427;49.754;6.106;2023-03-14T06:24:33;9.70;99.90
12726;DHT22;6427;49.754;6.106;2023-03-14T06:27:01;9.70;99.90
12726;DHT22;6427;49.754;6.106;2023-03-14T06:29:29;9.70;99.90
12726;DHT22;6427;49.754;6.106;2023-03-14T06:31:56;9.70;99.90
12726;DHT22;6427;49.754;6.106;2023-03-14T06:34:24;9.70;99.90
12726;DHT22;6427;49.754;6.106;2023-03-14T06:36:52;9.70;99.90
12726;DHT22;6427;49.754;6.106;2023-03-14T06:39:20;9.70;99.90
12726;DHT22;6427;49.754;6.106;2023-03-14T06:41:47;9.80;99.90
12726;DHT22;6427;49.754;6.106;2023-03-14T06:44:15;9.70;99.90
12726;DHT22;6427;49.754;6.106;2023-03-14T06:46:42;9.70;99.90
12726;DHT22;6427;49.754;6.106;2023-03-14T06:49:11;9.80;99.90
12726;DHT22;6427;49.754;6.106;2023-03-14T06:51:38;9.80;99.90
12726;DHT22;6427;49.754;6.106;2023-03-14T06:54:06;9.80;99.90
12726;DHT22;6427;49.754;6.106;2023-03-14T06:56:34;9.80;99.90
12726;DHT22;6427;49.754;6.106;2023-03-14T06:59:02;9.90;99.90
12726;DHT22;6427;49.754;6.106;2023-03-14T07:01:30;9.90;99.90
12726;DHT22;6427;49.754;6.106;2023-03-14T07:03:57;9.90;99.90
12726;DHT22;6427;49.754;6.106;2023-03-14T07:06:25;10.00;99.90
12726;DHT22;6427;49.754;6.106;2023-03-14T07:08:53;10.00;99.90
12726;DHT22;6427;49.754;6.106;2023-03-14T07:11:20;10.10;99.90
12726;DHT22;6427;49.754;6.106;2023-03-14T07:13:48;10.10;99.90
12726;DHT22;6427;49.754;6.106;2023-03-14T07:16:16;10.20;99.90
12726;DHT22;6427;49.754;6.106;2023-03-14T07:18:45;10.30;99.90
12726;DHT22;6427;49.754;6.106;2023-03-14T07:21:12;10.30;99.90
12726;DHT22;6427;49.754;6.106;2023-03-14T07:23:40;10.40;99.90
12726;DHT22;6427;49.754;6.106;2023-03-14T07:26:08;10.40;99.90
12726;DHT22;6427;49.754;6.106;2023-03-14T07:28:36;10.40;99.90
12726;DHT22;6427;49.754;6.106;2023-03-14T07:31:03;10.60;99.90
12726;DHT22;6427;49.754;6.106;2023-03-14T07:33:31;10.60;99.90
12726;DHT22;6427;49.754;6.106;2023-03-14T07:35:58;10.60;99.90
12726;DHT22;6427;49.754;6.106;2023-03-14T07:38:26;10.60;99.90
12726;DHT22;6427;49.754;6.106;2023-03-14T07:41:00;10.60;99.90
12726;DHT22;6427;49.754;6.106;2023-03-14T07:43:27;10.60;99.90
12726;DHT22;6427;49.754;6.106;2023-03-14T07:45:56;10.50;99.90
12726;DHT22;6427;49.754;6.106;2023-03-14T07:48:23;10.50;99.90
12726;DHT22;6427;49.754;6.106;2023-03-14T07:50:51;10.50;99.90
12726;DHT22;6427;49.754;6.106;2023-03-14T07:53:19;10.60;99.90
12726;DHT22;6427;49.754;6.106;2023-03-14T07:55:47;10.50;99.90
12726;DHT22;6427;49.754;6.106;2023-03-14T07:58:14;10.60;99.90
12726;DHT22;6427;49.754;6.106;2023-03-14T08:00:43;10.50;99.90
12726;DHT22;6427;49.754;6.106;2023-03-14T08:03:10;10.50;99.90
12726;DHT22;6427;49.754;6.106;2023-03-14T08:05:38;10.50;99.90
12726;DHT22;6427;49.754;6.106;2023-03-14T08:08:05;10.60;99.90
12726;DHT22;6427;49.754;6.106;2023-03-14T08:10:33;10.70;99.90
12726;DHT22;6427;49.754;6.106;2023-03-14T08:13:01;10.70;99.90
12726;DHT22;6427;49.754;6.106;2023-03-14T08:15:29;10.70;99.90
12726;DHT22;6427;49.754;6.106;2023-03-14T08:17:56;10.70;99.90
12726;DHT22;6427;49.754;6.106;2023-03-14T08:20:24;10.70;99.90
12726;DHT22;6427;49.754;6.106;2023-03-14T08:22:51;10.90;99.90
12726;DHT22;6427;49.754;6.106;2023-03-14T08:25:19;10.90;99.90
12726;DHT22;6427;49.754;6.106;2023-03-14T08:27:47;10.80;99.90
12726;DHT22;6427;49.754;6.106;2023-03-14T08:30:15;10.80;99.90
12726;DHT22;6427;49.754;6.106;2023-03-14T08:32:42;10.80;99.90
12726;DHT22;6427;49.754;6.106;2023-03-14T08:35:10;10.70;99.90
12726;DHT22;6427;49.754;6.106;2023-03-14T08:37:37;10.70;99.90
12726;DHT22;6427;49.754;6.106;2023-03-14T08:40:05;10.70;99.90
12726;DHT22;6427;49.754;6.106;2023-03-14T08:42:39;10.70;99.90
12726;DHT22;6427;49.754;6.106;2023-03-14T08:45:06;10.70;99.90
12726;DHT22;6427;49.754;6.106;2023-03-14T08:47:33;10.70;99.90
12726;DHT22;6427;49.754;6.106;2023-03-14T08:50:02;10.70;99.90
12726;DHT22;6427;49.754;6.106;2023-03-14T08:52:29;11.00;99.90
12726;DHT22;6427;49.754;6.106;2023-03-14T08:54:57;11.10;99.90
12726;DHT22;6427;49.754;6.106;2023-03-14T08:57:25;11.10;99.90
12726;DHT22;6427;49.754;6.106;2023-03-14T08:59:56;11.10;99.90
12726;DHT22;6427;49.754;6.106;2023-03-14T09:02:25;11.20;99.90
12726;DHT22;6427;49.754;6.106;2023-03-14T09:04:52;11.30;99.90
12726;DHT22;6427;49.754;6.106;2023-03-14T09:07:20;11.30;99.90
12726;DHT22;6427;49.754;6.106;2023-03-14T09:09:47;11.30;99.90
12726;DHT22;6427;49.754;6.106;2023-03-14T09:12:15;11.30;99.90
12726;DHT22;6427;49.754;6.106;2023-03-14T09:14:43;11.30;99.90
12726;DHT22;6427;49.754;6.106;2023-03-14T09:17:12;11.30;99.90
12726;DHT22;6427;49.754;6.106;2023-03-14T09:19:39;11.30;99.90
12726;DHT22;6427;49.754;6.106;2023-03-14T09:22:07;11.20;99.90
12726;DHT22;6427;49.754;6.106;2023-03-14T09:24:34;11.00;99.90
12726;DHT22;6427;49.754;6.106;2023-03-14T09:27:02;10.90;99.90
12726;DHT22;6427;49.754;6.106;2023-03-14T09:29:29;10.70;99.90
12726;DHT22;6427;49.754;6.106;2023-03-14T09:31:57;10.50;99.90
12726;DHT22;6427;49.754;6.106;2023-03-14T09:34:24;10.40;99.90
12726;DHT22;6427;49.754;6.106;2023-03-14T09:36:53;10.20;99.90
12726;DHT22;6427;49.754;6.106;2023-03-14T09:39:20;10.20;99.90
12726;DHT22;6427;49.754;6.106;2023-03-14T09:41:48;10.10;99.90
12726;DHT22;6427;49.754;6.106;2023-03-14T09:44:24;10.10;99.90
12726;DHT22;6427;49.754;6.106;2023-03-14T09:46:50;10.00;99.90
12726;DHT22;6427;49.754;6.106;2023-03-14T09:49:27;10.00;99.90
12726;DHT22;6427;49.754;6.106;2023-03-14T09:51:53;9.90;99.90
12726;DHT22;6427;49.754;6.106;2023-03-14T09:54:42;9.80;99.90
12726;DHT22;6427;49.754;6.106;2023-03-14T09:57:08;9.80;99.90
12726;DHT22;6427;49.754;6.106;2023-03-14T09:59:33;9.90;99.90
12726;DHT22;6427;49.754;6.106;2023-03-14T10:04:37;9.70;99.90
12726;DHT22;6427;49.754;6.106;2023-03-14T10:07:05;9.50;99.90
12726;DHT22;6427;49.754;6.106;2023-03-14T10:09:32;9.40;99.90
12726;DHT22;6427;49.754;6.106;2023-03-14T10:12:00;9.50;99.90
12726;DHT22;6427;49.754;6.106;2023-03-14T10:14:34;9.40;99.90
12726;DHT22;6427;49.754;6.106;2023-03-14T10:17:10;9.60;99.90
12726;DHT22;6427;49.754;6.106;2023-03-14T10:19:37;9.50;99.90
12726;DHT22;6427;49.754;6.106;2023-03-14T10:22:04;9.60;99.90
12726;DHT22;6427;49.754;6.106;2023-03-14T10:24:33;9.50;99.90
12726;DHT22;6427;49.754;6.106;2023-03-14T10:27:04;9.40;99.90
12726;DHT22;6427;49.754;6.106;2023-03-14T10:29:30;9.20;99.90
12726;DHT22;6427;49.754;6.106;2023-03-14T10:31:59;9.10;99.90
12726;DHT22;6427;49.754;6.106;2023-03-14T10:34:29;9.10;99.90
12726;DHT22;6427;49.754;6.106;2023-03-14T10:36:57;9.00;99.90
12726;DHT22;6427;49.754;6.106;2023-03-14T10:39:31;9.00;99.90
12726;DHT22;6427;49.754;6.106;2023-03-14T10:42:16;9.10;99.90
12726;DHT22;6427;49.754;6.106;2023-03-14T10:44:42;9.10;99.90
12726;DHT22;6427;49.754;6.106;2023-03-14T10:47:15;9.10;99.90
12726;DHT22;6427;49.754;6.106;2023-03-14T10:49:38;9.20;99.90
12726;DHT22;6427;49.754;6.106;2023-03-14T10:54:36;9.20;99.90
12726;DHT22;6427;49.754;6.106;2023-03-14T10:57:04;9.50;99.90
12726;DHT22;6427;49.754;6.106;2023-03-14T10:59:38;9.80;99.90
12726;DHT22;6427;49.754;6.106;2023-03-14T11:07:50;9.50;99.90
12726;DHT22;6427;49.754;6.106;2023-03-14T11:10:26;9.40;99.90
12726;DHT22;6427;49.754;6.106;2023-03-14T11:18:47;9.00;99.90
12726;DHT22;6427;49.754;6.106;2023-03-14T11:29:39;9.30;99.90
12726;DHT22;6427;49.754;6.106;2023-03-14T11:32:13;9.30;99.90
12726;DHT22;6427;49.754;6.106;2023-03-14T11:34:42;9.20;99.90
12726;DHT22;6427;49.754;6.106;2023-03-14T11:37:11;9.10;99.90
12726;DHT22;6427;49.754;6.106;2023-03-14T11:39:41;9.20;99.90
12726;DHT22;6427;49.754;6.106;2023-03-14T11:42:12;9.20;99.90
12726;DHT22;6427;49.754;6.106;2023-03-14T11:44:38;9.20;99.90
12726;DHT22;6427;49.754;6.106;2023-03-14T11:47:15;9.20;99.90
12726;DHT22;6427;49.754;6.106;2023-03-14T11:49:50;9.20;99.90
12726;DHT22;6427;49.754;6.106;2023-03-14T11:55:22;9.60;99.90
12726;DHT22;6427;49.754;6.106;2023-03-14T11:57:48;9.70;99.90
12726;DHT22;6427;49.754;6.106;2023-03-14T12:00:16;9.80;99.90
12726;DHT22;6427;49.754;6.106;2023-03-14T12:03:23;9.80;99.90
12726;DHT22;6427;49.754;6.106;2023-03-14T12:08:38;9.60;99.60
12726;DHT22;6427;49.754;6.106;2023-03-14T12:11:12;9.60;99.30
12726;DHT22;6427;49.754;6.106;2023-03-14T12:13:39;9.60;99.60
12726;DHT22;6427;49.754;6.106;2023-03-14T12:16:06;9.50;99.50
12726;DHT22;6427;49.754;6.106;2023-03-14T12:18:34;9.40;99.90
12726;DHT22;6427;49.754;6.106;2023-03-14T12:21:02;9.40;99.90
12726;DHT22;6427;49.754;6.106;2023-03-14T12:23:34;9.30;99.00
12726;DHT22;6427;49.754;6.106;2023-03-14T12:28:39;9.40;97.10
12726;DHT22;6427;49.754;6.106;2023-03-14T12:42:01;9.50;95.80
12726;DHT22;6427;49.754;6.106;2023-03-14T12:49:46;9.70;96.20
12726;DHT22;6427;49.754;6.106;2023-03-14T12:55:02;9.80;96.60
12726;DHT22;6427;49.754;6.106;2023-03-14T12:57:33;10.00;96.50
12726;DHT22;6427;49.754;6.106;2023-03-14T13:00:00;10.00;96.40
12726;DHT22;6427;49.754;6.106;2023-03-14T13:02:38;10.00;94.60
12726;DHT22;6427;49.754;6.106;2023-03-14T13:05:22;10.00;94.90
12726;DHT22;6427;49.754;6.106;2023-03-14T13:10:27;9.90;93.90
12726;DHT22;6427;49.754;6.106;2023-03-14T13:13:01;9.90;93.80
12726;DHT22;6427;49.754;6.106;2023-03-14T13:15:40;9.80;93.70
12726;DHT22;6427;49.754;6.106;2023-03-14T13:18:14;9.80;93.70
12726;DHT22;6427;49.754;6.106;2023-03-14T13:20:55;9.90;94.50
12726;DHT22;6427;49.754;6.106;2023-03-14T13:23:21;9.80;94.10
12726;DHT22;6427;49.754;6.106;2023-03-14T13:25:48;9.80;93.90
12726;DHT22;6427;49.754;6.106;2023-03-14T13:28:16;9.90;93.20
12726;DHT22;6427;49.754;6.106;2023-03-14T13:30:44;10.10;93.10
12726;DHT22;6427;49.754;6.106;2023-03-14T13:33:15;10.10;92.40
12726;DHT22;6427;49.754;6.106;2023-03-14T13:35:42;10.00;92.50
12726;DHT22;6427;49.754;6.106;2023-03-14T13:38:21;10.10;92.90
12726;DHT22;6427;49.754;6.106;2023-03-14T13:40:48;10.00;93.00
12726;DHT22;6427;49.754;6.106;2023-03-14T13:43:23;10.00;92.90
12726;DHT22;6427;49.754;6.106;2023-03-14T13:45:50;10.00;92.80
12726;DHT22;6427;49.754;6.106;2023-03-14T13:48:16;10.00;93.00
12726;DHT22;6427;49.754;6.106;2023-03-14T13:50:51;10.00;93.00
12726;DHT22;6427;49.754;6.106;2023-03-14T13:53:17;10.00;93.10
12726;DHT22;6427;49.754;6.106;2023-03-14T13:55:46;10.10;93.40
12726;DHT22;6427;49.754;6.106;2023-03-14T13:58:27;10.10;93.30
12726;DHT22;6427;49.754;6.106;2023-03-14T14:01:01;10.30;93.60
12726;DHT22;6427;49.754;6.106;2023-03-14T14:03:34;10.60;91.30
12726;DHT22;6427;49.754;6.106;2023-03-14T14:06:00;10.60;91.30
12726;DHT22;6427;49.754;6.106;2023-03-14T14:08:28;10.60;91.20
12726;DHT22;6427;49.754;6.106;2023-03-14T14:10:57;10.70;90.30
12726;DHT22;6427;49.754;6.106;2023-03-14T14:13:23;10.70;87.30
12726;DHT22;6427;49.754;6.106;2023-03-14T14:15:51;10.80;87.50
12726;DHT22;6427;49.754;6.106;2023-03-14T14:18:19;10.90;85.40
12726;DHT22;6427;49.754;6.106;2023-03-14T14:20:46;10.90;84.60
12726;DHT22;6427;49.754;6.106;2023-03-14T14:23:20;11.00;83.80
12726;DHT22;6427;49.754;6.106;2023-03-14T14:25:48;11.30;82.20
12726;DHT22;6427;49.754;6.106;2023-03-14T14:28:37;11.10;76.60
12726;DHT22;6427;49.754;6.106;2023-03-14T14:30:43;11.10;76.50
12726;DHT22;6427;49.754;6.106;2023-03-14T14:33:18;11.00;75.80
12726;DHT22;6427;49.754;6.106;2023-03-14T14:35:51;10.80;75.70
12726;DHT22;6427;49.754;6.106;2023-03-14T14:38:18;10.70;76.20
12726;DHT22;6427;49.754;6.106;2023-03-14T14:40:47;10.50;78.10
12726;DHT22;6427;49.754;6.106;2023-03-14T14:43:21;10.50;77.40
12726;DHT22;6427;49.754;6.106;2023-03-14T14:45:47;10.40;77.60
12726;DHT22;6427;49.754;6.106;2023-03-14T14:48:17;10.30;78.80
12726;DHT22;6427;49.754;6.106;2023-03-14T14:55:49;10.40;81.40
12726;DHT22;6427;49.754;6.106;2023-03-14T14:58:29;10.50;83.20
12726;DHT22;6427;49.754;6.106;2023-03-14T15:00:59;11.00;85.00
12726;DHT22;6427;49.754;6.106;2023-03-14T15:03:27;11.00;84.90
12726;DHT22;6427;49.754;6.106;2023-03-14T15:05:55;11.30;82.40
12726;DHT22;6427;49.754;6.106;2023-03-14T15:08:26;11.40;82.50
12726;DHT22;6427;49.754;6.106;2023-03-14T15:10:50;11.30;82.70
12726;DHT22;6427;49.754;6.106;2023-03-14T15:13:19;10.90;84.00
12726;DHT22;6427;49.754;6.106;2023-03-14T15:15:46;10.90;83.90
12726;DHT22;6427;49.754;6.106;2023-03-14T15:18:15;10.60;84.90
12726;DHT22;6427;49.754;6.106;2023-03-14T15:20:42;10.40;86.30
12726;DHT22;6427;49.754;6.106;2023-03-14T15:23:13;10.10;88.10
12726;DHT22;6427;49.754;6.106;2023-03-14T15:25:40;9.50;90.70
12726;DHT22;6427;49.754;6.106;2023-03-14T15:30:47;9.10;91.30
12726;DHT22;6427;49.754;6.106;2023-03-14T15:33:14;8.90;91.90
12726;DHT22;6427;49.754;6.106;2023-03-14T15:35:41;8.70;92.60
12726;DHT22;6427;49.754;6.106;2023-03-14T15:38:14;8.50;94.10
12726;DHT22;6427;49.754;6.106;2023-03-14T15:40:40;8.50;93.70
12726;DHT22;6427;49.754;6.106;2023-03-14T15:43:08;8.40;95.00
12726;DHT22;6427;49.754;6.106;2023-03-14T15:45:36;8.40;95.00
12726;DHT22;6427;49.754;6.106;2023-03-14T15:48:04;8.20;96.60
12726;DHT22;6427;49.754;6.106;2023-03-14T15:50:32;8.20;96.60
12726;DHT22;6427;49.754;6.106;2023-03-14T15:52:59;8.10;97.20
12726;DHT22;6427;49.754;6.106;2023-03-14T15:55:27;8.20;97.70
12726;DHT22;6427;49.754;6.106;2023-03-14T15:57:55;8.20;97.80
12726;DHT22;6427;49.754;6.106;2023-03-14T16:00:22;8.40;98.00
12726;DHT22;6427;49.754;6.106;2023-03-14T16:02:51;8.50;97.90
12726;DHT22;6427;49.754;6.106;2023-03-14T16:05:18;8.50;97.90
12726;DHT22;6427;49.754;6.106;2023-03-14T16:07:49;8.40;98.40
12726;DHT22;6427;49.754;6.106;2023-03-14T16:10:16;8.40;99.30
12726;DHT22;6427;49.754;6.106;2023-03-14T16:12:44;8.70;99.70
12726;DHT22;6427;49.754;6.106;2023-03-14T16:15:11;8.80;99.70
12726;DHT22;6427;49.754;6.106;2023-03-14T16:17:39;8.90;99.30
12726;DHT22;6427;49.754;6.106;2023-03-14T16:20:07;8.90;99.70
12726;DHT22;6427;49.754;6.106;2023-03-14T16:22:34;9.00;99.40
12726;DHT22;6427;49.754;6.106;2023-03-14T16:25:06;9.10;98.90
12726;DHT22;6427;49.754;6.106;2023-03-14T16:27:29;9.10;98.60
12726;DHT22;6427;49.754;6.106;2023-03-14T16:29:57;9.20;99.00
12726;DHT22;6427;49.754;6.106;2023-03-14T16:32:25;9.40;98.20
12726;DHT22;6427;49.754;6.106;2023-03-14T16:34:53;9.30;97.80
12726;DHT22;6427;49.754;6.106;2023-03-14T16:37:22;9.30;97.80
12726;DHT22;6427;49.754;6.106;2023-03-14T16:39:48;9.20;98.20
12726;DHT22;6427;49.754;6.106;2023-03-14T16:42:15;9.10;98.10
12726;DHT22;6427;49.754;6.106;2023-03-14T16:44:43;8.90;98.40
12726;DHT22;6427;49.754;6.106;2023-03-14T16:47:12;8.60;99.10
12726;DHT22;6427;49.754;6.106;2023-03-14T16:49:40;8.40;99.50
12726;DHT22;6427;49.754;6.106;2023-03-14T16:52:08;8.40;99.50
12726;DHT22;6427;49.754;6.106;2023-03-14T16:54:35;8.30;99.90
12726;DHT22;6427;49.754;6.106;2023-03-14T16:57:03;8.10;99.90
12726;DHT22;6427;49.754;6.106;2023-03-14T16:59:31;8.10;99.90
12726;DHT22;6427;49.754;6.106;2023-03-14T17:01:58;8.00;99.90
12726;DHT22;6427;49.754;6.106;2023-03-14T17:04:27;7.70;99.90
12726;DHT22;6427;49.754;6.106;2023-03-14T17:06:55;7.60;99.90
12726;DHT22;6427;49.754;6.106;2023-03-14T17:09:22;7.50;99.90
12726;DHT22;6427;49.754;6.106;2023-03-14T17:11:50;7.40;99.90